Terminal Aerodrome Forecast
Issued by NWS

Home | Current Version | Previous Version | Text Only | Print | Product List | Glossary On
Versions: 1 2 3 4 5 6 7 8 9 10 11 12
727
FTUS43 KIND 072335
TAFBMG
TAF
KBMG 072335Z 0800/0824 21010KT P6SM SCT040 BKN120
     FM080400 24005KT P6SM SCT040 BKN120
     FM081200 25007KT P6SM SCT025 OVC040
     FM081500 28011G18KT 4SM -SHSN OVC025
      AMD LTD TO CLD VIS AND WIND 0802/0814=

USA.gov is the U.S. government's official web portal to all federal, state and local government web resources and services.